createdAt,value
2022-07-28T00:00:20.451Z,18.72
2022-07-28T00:01:22.773Z,18.57
2022-07-28T00:02:27.083Z,18.61
2022-07-28T00:03:30.020Z,18.61
2022-07-28T00:04:33.116Z,18.55
2022-07-28T00:05:35.415Z,18.56
2022-07-28T00:06:37.780Z,18.61
2022-07-28T00:07:40.037Z,18.70
2022-07-28T00:08:42.377Z,18.74
2022-07-28T00:09:44.531Z,18.72
2022-07-28T00:10:47.026Z,18.73
2022-07-28T00:11:51.455Z,18.80
2022-07-28T00:12:53.275Z,18.82
2022-07-28T00:13:55.715Z,18.77
2022-07-28T00:14:58.068Z,18.82
2022-07-28T00:16:01.100Z,18.82
2022-07-28T00:17:03.825Z,18.79
2022-07-28T00:18:06.023Z,18.75
2022-07-28T00:19:08.421Z,18.57
2022-07-28T00:20:11.170Z,18.52
2022-07-28T00:21:14.614Z,18.56
2022-07-28T00:22:17.718Z,18.54
2022-07-28T00:23:20.465Z,18.57
2022-07-28T00:24:23.966Z,18.55
2022-07-28T00:25:26.215Z,18.54
2022-07-28T00:26:30.327Z,18.51
2022-07-28T00:27:32.725Z,18.52
2022-07-28T00:28:35.985Z,18.46
2022-07-28T00:29:49.274Z,18.52
2022-07-28T00:30:42.527Z,18.56
2022-07-28T00:31:44.886Z,18.49
2022-07-28T00:32:47.410Z,18.59
2022-07-28T00:33:49.919Z,18.65
2022-07-28T00:34:53.434Z,18.67
2022-07-28T00:35:56.071Z,18.62
2022-07-28T00:36:59.047Z,18.48
2022-07-28T00:38:01.252Z,18.41
2022-07-28T00:39:04.000Z,18.42
2022-07-28T00:40:08.358Z,18.46
2022-07-28T00:41:11.275Z,18.52
2022-07-28T00:42:19.436Z,18.50
2022-07-28T00:43:21.925Z,18.55
2022-07-28T00:44:23.886Z,18.56
2022-07-28T00:45:26.045Z,18.58
2022-07-28T00:46:29.021Z,18.53
2022-07-28T00:47:33.508Z,18.43
2022-07-28T00:48:44.319Z,18.40
2022-07-28T00:49:46.695Z,18.47
2022-07-28T00:50:49.059Z,18.50
2022-07-28T00:51:51.881Z,18.57
2022-07-28T00:52:55.106Z,18.48
2022-07-28T00:53:58.245Z,18.51
2022-07-28T00:55:02.887Z,18.49
2022-07-28T00:56:07.035Z,18.56
2022-07-28T00:57:09.613Z,18.54
2022-07-28T00:58:11.683Z,18.57
2022-07-28T00:59:14.157Z,18.59
2022-07-28T01:00:17.441Z,18.56
2022-07-28T01:01:20.182Z,18.56
2022-07-28T01:02:23.998Z,18.61
2022-07-28T01:03:28.468Z,18.53
2022-07-28T01:04:30.987Z,18.56
2022-07-28T01:05:54.681Z,18.59
2022-07-28T01:07:07.040Z,18.60
2022-07-28T01:09:32.037Z,18.65
2022-07-28T01:11:09.224Z,18.45
2022-07-28T01:12:34.298Z,18.36
2022-07-28T01:13:55.414Z,18.39
2022-07-28T01:15:17.895Z,18.39
2022-07-28T01:16:23.597Z,18.44
2022-07-28T01:17:52.719Z,18.53
2022-07-28T01:19:04.564Z,18.47
2022-07-28T01:20:16.997Z,18.48
2022-07-28T01:21:23.750Z,18.52
2022-07-28T01:22:30.218Z,18.51
2022-07-28T01:23:41.756Z,18.35
2022-07-28T01:25:05.857Z,18.33
2022-07-28T01:26:31.533Z,18.23
2022-07-28T01:27:58.174Z,18.20
2022-07-28T01:29:09.846Z,18.26
2022-07-28T01:30:35.492Z,18.20
2022-07-28T01:31:41.371Z,18.15
2022-07-28T01:32:47.626Z,18.04
2022-07-28T01:33:53.185Z,17.99
2022-07-28T01:35:15.499Z,18.00
2022-07-28T01:36:22.799Z,18.00
2022-07-28T01:37:28.743Z,18.01
2022-07-28T01:38:33.769Z,18.01
2022-07-28T01:39:39.065Z,18.04
2022-07-28T01:40:44.981Z,17.96
2022-07-28T01:41:50.882Z,17.93
2022-07-28T01:42:56.560Z,17.98
2022-07-28T01:44:02.366Z,17.84
2022-07-28T01:45:07.473Z,17.88
2022-07-28T01:46:12.171Z,17.80
2022-07-28T01:47:16.340Z,17.84
2022-07-28T01:48:22.009Z,17.82
2022-07-28T01:49:27.496Z,17.82
2022-07-28T01:50:32.391Z,17.76
2022-07-28T01:51:36.210Z,17.69
2022-07-28T01:52:40.809Z,17.76
2022-07-28T01:53:45.589Z,17.70
2022-07-28T01:54:49.541Z,17.66
2022-07-28T01:55:52.522Z,17.63
2022-07-28T01:56:56.722Z,17.69
2022-07-28T01:58:00.890Z,17.75
2022-07-28T01:59:05.979Z,17.74
2022-07-28T02:00:10.749Z,17.63
2022-07-28T02:01:17.395Z,17.48
2022-07-28T02:02:20.517Z,17.40
2022-07-28T02:03:24.715Z,17.43
2022-07-28T02:04:27.901Z,17.48
2022-07-28T02:05:32.992Z,17.48
2022-07-28T02:06:38.867Z,17.51
2022-07-28T02:07:43.734Z,17.52
2022-07-28T02:08:47.102Z,17.49
2022-07-28T02:09:50.261Z,17.55
2022-07-28T02:10:55.383Z,17.53
2022-07-28T02:12:00.005Z,17.36
2022-07-28T02:13:03.889Z,17.30
2022-07-28T02:14:18.458Z,17.33
2022-07-28T02:15:22.127Z,17.40
2022-07-28T02:16:26.830Z,17.42
2022-07-28T02:18:44.557Z,17.49
2022-07-28T02:19:49.720Z,17.29
2022-07-28T02:20:52.481Z,17.27
2022-07-28T02:23:16.659Z,17.23
2022-07-28T02:24:22.501Z,17.27
2022-07-28T02:25:25.358Z,17.36
2022-07-28T02:26:34.523Z,17.35
2022-07-28T02:27:43.463Z,17.30
2022-07-28T02:28:48.856Z,17.25
2022-07-28T02:30:00.936Z,17.26
2022-07-28T02:31:06.175Z,17.24
2022-07-28T02:32:27.305Z,17.19
2022-07-28T02:33:59.589Z,17.22
2022-07-28T02:34:35.614Z,17.09
2022-07-28T02:35:41.289Z,17.14
2022-07-28T02:36:56.414Z,17.15
2022-07-28T02:38:03.716Z,17.14
2022-07-28T02:39:09.558Z,17.04
2022-07-28T02:40:14.723Z,17.03
2022-07-28T02:41:29.018Z,17.08
2022-07-28T02:42:34.625Z,17.09
2022-07-28T02:43:49.218Z,17.05
2022-07-28T02:44:46.254Z,17.04
2022-07-28T02:45:52.111Z,17.00
2022-07-28T02:46:57.636Z,16.99
2022-07-28T02:48:03.424Z,16.87
2022-07-28T02:49:09.196Z,16.98
2022-07-28T02:50:15.217Z,16.96
2022-07-28T02:51:20.330Z,17.02
2022-07-28T02:52:24.948Z,17.11
2022-07-28T02:53:30.817Z,17.18
2022-07-28T02:54:34.652Z,17.23
2022-07-28T02:55:39.396Z,17.21
2022-07-28T02:56:42.720Z,17.21
2022-07-28T02:57:51.996Z,17.20
2022-07-28T02:58:54.173Z,17.15
2022-07-28T02:59:57.665Z,17.08
2022-07-28T03:01:00.568Z,17.07
2022-07-28T03:02:03.513Z,17.20
2022-07-28T03:03:06.575Z,17.27
2022-07-28T03:04:11.156Z,17.20
2022-07-28T03:05:18.534Z,17.11
2022-07-28T03:06:26.555Z,17.08
2022-07-28T03:07:32.333Z,17.05
2022-07-28T03:08:34.481Z,17.12
2022-07-28T03:09:42.160Z,17.02
2022-07-28T03:10:44.933Z,17.06
2022-07-28T03:11:52.020Z,17.04
2022-07-28T03:12:55.091Z,17.09
2022-07-28T03:13:57.062Z,17.12
2022-07-28T03:14:59.083Z,17.14
2022-07-28T03:16:01.356Z,17.19
2022-07-28T03:17:04.163Z,17.24
2022-07-28T03:18:07.411Z,17.28
2022-07-28T03:19:09.660Z,17.40
2022-07-28T03:20:12.568Z,17.44
2022-07-28T03:21:14.766Z,17.37
2022-07-28T03:22:17.679Z,17.39
2022-07-28T03:23:22.433Z,17.37
2022-07-28T03:24:28.336Z,17.41
2022-07-28T03:25:40.468Z,17.40
2022-07-28T03:26:46.401Z,17.36
2022-07-28T03:27:52.298Z,17.39
2022-07-28T03:28:57.036Z,17.33
2022-07-28T03:30:08.054Z,17.32
2022-07-28T03:31:12.800Z,17.27
2022-07-28T03:32:18.441Z,17.17
2022-07-28T03:33:20.559Z,17.23
2022-07-28T03:34:23.285Z,17.24
2022-07-28T03:35:26.898Z,17.16
2022-07-28T03:36:32.848Z,17.19
2022-07-28T03:37:53.903Z,17.23
2022-07-28T03:39:03.382Z,17.25
2022-07-28T03:40:10.435Z,17.22
2022-07-28T03:41:16.056Z,17.26
2022-07-28T03:42:19.103Z,17.26
2022-07-28T03:43:23.518Z,17.28
2022-07-28T03:44:27.955Z,17.17
2022-07-28T03:45:30.778Z,17.12
2022-07-28T03:46:33.790Z,17.15
2022-07-28T03:47:36.051Z,17.15
2022-07-28T03:48:38.525Z,17.23
2022-07-28T03:49:40.837Z,17.29
2022-07-28T03:50:43.266Z,17.26
2022-07-28T03:51:45.439Z,17.29
2022-07-28T03:52:47.680Z,17.30
2022-07-28T03:53:50.143Z,17.43
2022-07-28T03:54:52.911Z,17.31
2022-07-28T03:55:56.191Z,17.31
2022-07-28T03:56:58.861Z,17.25
2022-07-28T03:58:01.087Z,17.24
2022-07-28T03:59:03.600Z,17.26
2022-07-28T04:00:09.864Z,17.19
2022-07-28T04:01:15.149Z,17.24
2022-07-28T04:02:17.582Z,17.28
2022-07-28T04:03:22.635Z,17.28
2022-07-28T04:04:24.668Z,17.31
2022-07-28T04:05:28.123Z,17.32
2022-07-28T04:06:30.863Z,17.23
2022-07-28T04:07:33.036Z,17.29
2022-07-28T04:08:35.290Z,17.21
2022-07-28T04:09:37.491Z,17.27
2022-07-28T04:10:40.326Z,17.28
2022-07-28T04:11:42.479Z,17.31
2022-07-28T04:12:52.318Z,17.35
2022-07-28T04:13:57.703Z,17.28
2022-07-28T04:14:59.988Z,17.31
2022-07-28T04:16:02.652Z,17.31
2022-07-28T04:17:04.768Z,17.30
2022-07-28T04:18:07.064Z,17.28
2022-07-28T04:19:10.878Z,17.35
2022-07-28T04:20:14.895Z,17.31
2022-07-28T04:21:17.053Z,17.33
2022-07-28T04:22:19.341Z,17.34
2022-07-28T04:23:22.186Z,17.39
2022-07-28T04:24:25.496Z,17.39
2022-07-28T04:25:27.587Z,17.44
2022-07-28T04:26:30.708Z,17.47
2022-07-28T04:27:35.326Z,17.50
2022-07-28T04:28:37.781Z,17.48
2022-07-28T04:29:40.035Z,17.48
2022-07-28T04:30:43.831Z,17.52
2022-07-28T04:31:46.708Z,17.55
2022-07-28T04:32:50.302Z,17.45
2022-07-28T04:33:52.866Z,17.49
2022-07-28T04:34:55.566Z,17.50
2022-07-28T04:35:57.759Z,17.59
2022-07-28T04:36:59.923Z,17.62
2022-07-28T04:38:02.109Z,17.64
2022-07-28T04:39:04.370Z,17.62
2022-07-28T04:40:09.460Z,17.57
2022-07-28T04:41:12.152Z,17.63
2022-07-28T04:42:15.447Z,17.67
2022-07-28T04:43:17.815Z,17.63
2022-07-28T04:44:20.188Z,17.66
2022-07-28T04:45:23.028Z,17.71
2022-07-28T04:46:26.516Z,17.79
2022-07-28T04:47:28.886Z,17.72
2022-07-28T04:48:31.054Z,17.72
2022-07-28T04:49:33.087Z,17.72
2022-07-28T04:50:39.309Z,17.77
2022-07-28T04:51:41.523Z,17.76
2022-07-28T04:52:43.886Z,17.81
2022-07-28T04:53:46.820Z,17.89
2022-07-28T04:54:49.760Z,17.93
2022-07-28T04:55:53.364Z,17.89
2022-07-28T04:56:56.100Z,17.94
2022-07-28T04:57:58.235Z,17.95
2022-07-28T04:59:01.138Z,17.91
2022-07-28T05:00:07.933Z,17.94
2022-07-28T05:01:10.608Z,18.00
2022-07-28T05:02:13.217Z,18.06
2022-07-28T05:03:18.034Z,18.06
2022-07-28T05:04:21.524Z,17.99
2022-07-28T05:05:24.605Z,17.99
2022-07-28T05:06:28.352Z,18.00
2022-07-28T05:07:30.491Z,18.04
2022-07-28T05:08:32.536Z,18.13
2022-07-28T05:09:34.786Z,18.18
2022-07-28T05:10:37.558Z,18.11
2022-07-28T05:11:39.722Z,18.12
2022-07-28T05:12:42.379Z,18.12
2022-07-28T05:13:44.631Z,18.15
2022-07-28T05:14:46.794Z,18.17
2022-07-28T05:15:48.959Z,18.23
2022-07-28T05:16:51.876Z,18.31
2022-07-28T05:17:55.158Z,18.33
2022-07-28T05:18:57.986Z,18.34
2022-07-28T05:20:02.579Z,18.38
2022-07-28T05:21:06.292Z,18.43
2022-07-28T05:22:08.375Z,18.51
2022-07-28T05:23:11.026Z,18.43
2022-07-28T05:24:13.525Z,18.46
2022-07-28T05:25:18.882Z,18.47
2022-07-28T05:26:22.097Z,18.50
2022-07-28T05:27:25.274Z,18.51
2022-07-28T05:28:27.880Z,18.49
2022-07-28T05:29:37.549Z,18.55
2022-07-28T05:30:34.886Z,18.55
2022-07-28T05:31:38.267Z,18.56
2022-07-28T05:32:40.878Z,18.60
2022-07-28T05:33:43.461Z,18.63
2022-07-28T05:34:45.542Z,18.63
2022-07-28T05:35:54.424Z,18.60
2022-07-28T05:36:56.774Z,18.59
2022-07-28T05:37:59.043Z,18.61
2022-07-28T05:39:01.213Z,18.54
2022-07-28T05:40:06.422Z,18.63
2022-07-28T05:41:09.464Z,18.69
2022-07-28T05:42:11.764Z,18.67
2022-07-28T05:43:13.921Z,18.72
2022-07-28T05:44:16.644Z,18.74
2022-07-28T05:45:19.188Z,18.64
2022-07-28T05:46:23.007Z,18.61
2022-07-28T05:47:25.744Z,18.54
2022-07-28T05:48:28.287Z,18.58
2022-07-28T05:49:30.558Z,18.55
2022-07-28T05:50:34.042Z,18.61
2022-07-28T05:51:41.382Z,18.67
2022-07-28T05:52:40.443Z,18.76
2022-07-28T05:53:42.652Z,18.84
2022-07-28T05:54:44.835Z,18.88
2022-07-28T05:55:59.637Z,18.89
2022-07-28T05:56:51.997Z,18.90
2022-07-28T05:57:54.385Z,18.96
2022-07-28T05:58:57.729Z,18.96
2022-07-28T05:59:59.951Z,19.06
2022-07-28T06:01:02.874Z,19.04
2022-07-28T06:02:05.415Z,19.06
2022-07-28T06:03:07.713Z,19.08
2022-07-28T06:04:26.069Z,19.10
2022-07-28T06:05:16.643Z,19.14
2022-07-28T06:06:21.661Z,19.19
2022-07-28T06:07:23.959Z,19.24
2022-07-28T06:08:28.109Z,19.24
2022-07-28T06:09:30.483Z,19.25
2022-07-28T06:10:33.039Z,19.33
2022-07-28T06:11:35.143Z,19.30
2022-07-28T06:12:41.967Z,19.34
2022-07-28T06:13:44.176Z,19.35
2022-07-28T06:14:46.271Z,19.36
2022-07-28T06:15:49.261Z,19.34
2022-07-28T06:16:51.875Z,19.32
2022-07-28T06:17:54.682Z,19.22
2022-07-28T06:18:56.964Z,19.24
2022-07-28T06:19:59.127Z,19.20
2022-07-28T06:21:01.501Z,19.25
2022-07-28T06:22:03.672Z,19.25
2022-07-28T06:23:05.794Z,19.30
2022-07-28T06:24:08.549Z,19.33
2022-07-28T06:26:33.994Z,19.37
2022-07-28T06:27:36.133Z,19.28
2022-07-28T06:28:38.287Z,19.34
2022-07-28T06:29:40.547Z,19.35
2022-07-28T06:30:43.035Z,19.39
2022-07-28T06:31:45.087Z,19.45
2022-07-28T06:32:48.450Z,19.47
2022-07-28T06:33:50.844Z,19.43
2022-07-28T06:34:53.168Z,19.45
2022-07-28T06:35:56.372Z,19.46
2022-07-28T06:36:59.816Z,19.50
2022-07-28T06:38:02.102Z,19.55
2022-07-28T06:39:04.762Z,19.56
2022-07-28T06:40:08.432Z,19.59
2022-07-28T06:41:10.548Z,19.62
2022-07-28T06:42:12.910Z,19.62
2022-07-28T06:43:16.098Z,19.67
2022-07-28T06:44:18.825Z,19.74
2022-07-28T06:45:23.389Z,19.69
2022-07-28T06:46:26.395Z,19.75
2022-07-28T06:47:30.427Z,19.83
2022-07-28T06:48:33.440Z,19.84
2022-07-28T06:49:35.628Z,19.85
2022-07-28T06:50:37.956Z,19.84
2022-07-28T06:51:40.310Z,19.75
2022-07-28T06:52:42.882Z,19.81
2022-07-28T06:53:46.257Z,19.86
2022-07-28T06:54:50.032Z,19.95
2022-07-28T06:55:53.147Z,20.03
2022-07-28T06:56:56.088Z,20.09
2022-07-28T06:57:59.771Z,20.19
2022-07-28T06:59:02.437Z,20.19
2022-07-28T07:00:06.982Z,20.23
2022-07-28T07:01:09.701Z,20.22
2022-07-28T07:02:14.325Z,20.23
2022-07-28T07:03:19.268Z,20.15
2022-07-28T07:04:21.477Z,20.16
2022-07-28T07:05:26.896Z,20.12
2022-07-28T07:06:29.725Z,20.09
2022-07-28T07:07:32.000Z,20.03
2022-07-28T07:08:34.360Z,20.14
2022-07-28T07:09:37.157Z,20.24
2022-07-28T07:10:39.759Z,20.20
2022-07-28T07:11:42.707Z,20.20
2022-07-28T07:12:46.070Z,20.25
2022-07-28T07:13:49.523Z,20.34
2022-07-28T07:14:51.906Z,20.40
2022-07-28T07:15:54.305Z,20.32
2022-07-28T07:16:57.063Z,20.30
2022-07-28T07:17:59.818Z,20.31
2022-07-28T07:19:06.405Z,20.40
2022-07-28T07:20:08.856Z,20.47
2022-07-28T07:21:11.204Z,20.47
2022-07-28T07:22:14.906Z,20.57
2022-07-28T07:23:17.699Z,20.55
2022-07-28T07:24:21.148Z,20.37
2022-07-28T07:25:25.208Z,20.31
2022-07-28T07:26:29.366Z,20.35
2022-07-28T07:27:31.572Z,20.37
2022-07-28T07:28:34.915Z,20.44
2022-07-28T07:29:37.260Z,20.51
2022-07-28T07:30:39.547Z,20.38
2022-07-28T07:31:41.747Z,20.33
2022-07-28T07:32:48.588Z,20.36
2022-07-28T07:33:51.013Z,20.46
2022-07-28T07:34:53.294Z,20.52
2022-07-28T07:35:55.485Z,20.53
2022-07-28T07:36:57.919Z,20.48
2022-07-28T07:38:00.566Z,20.56
2022-07-28T07:39:02.722Z,20.65
2022-07-28T07:40:07.233Z,20.65
2022-07-28T07:41:09.369Z,20.62
2022-07-28T07:42:13.352Z,20.62
2022-07-28T07:43:15.651Z,20.65
2022-07-28T07:44:18.101Z,20.72
2022-07-28T07:45:20.564Z,20.72
2022-07-28T07:46:30.362Z,20.76
2022-07-28T07:47:50.818Z,20.76
2022-07-28T07:48:53.737Z,20.86
2022-07-28T07:49:56.047Z,20.92
2022-07-28T07:50:59.635Z,20.98
2022-07-28T07:52:03.038Z,20.96
2022-07-28T07:53:05.996Z,20.98
2022-07-28T07:54:08.207Z,21.00
2022-07-28T07:55:12.357Z,21.04
2022-07-28T07:56:15.081Z,21.08
2022-07-28T07:57:18.309Z,21.03
2022-07-28T07:58:21.595Z,21.01
2022-07-28T07:59:26.103Z,21.04
2022-07-28T08:00:31.217Z,21.04
2022-07-28T08:01:44.517Z,21.11
2022-07-28T08:02:51.208Z,21.14
2022-07-28T08:03:53.747Z,21.25
2022-07-28T08:04:56.429Z,21.11
2022-07-28T08:05:59.163Z,21.04
2022-07-28T08:07:03.356Z,21.02
2022-07-28T08:08:07.632Z,21.12
2022-07-28T08:09:10.331Z,21.19
2022-07-28T08:10:13.187Z,21.26
2022-07-28T08:11:15.336Z,21.30
2022-07-28T08:12:17.487Z,21.33
2022-07-28T08:13:22.526Z,21.19
2022-07-28T08:14:24.672Z,21.01
2022-07-28T08:15:26.923Z,21.02
2022-07-28T08:16:30.874Z,20.97
2022-07-28T08:17:33.355Z,21.00
2022-07-28T08:18:35.444Z,21.07
2022-07-28T08:19:37.672Z,21.15
2022-07-28T08:20:41.707Z,21.09
2022-07-28T08:21:44.070Z,21.05
2022-07-28T08:24:03.529Z,21.42
2022-07-28T08:25:06.788Z,21.33
2022-07-28T08:26:09.947Z,21.25
2022-07-28T08:27:12.267Z,21.25
2022-07-28T08:28:15.036Z,21.25
2022-07-28T08:29:17.116Z,21.36
2022-07-28T08:30:23.143Z,21.36
2022-07-28T08:31:25.871Z,21.44
2022-07-28T08:32:28.126Z,21.54
2022-07-28T08:33:30.224Z,21.54
2022-07-28T08:34:34.222Z,21.62
2022-07-28T08:35:36.538Z,21.56
2022-07-28T08:36:38.990Z,21.61
2022-07-28T08:37:41.101Z,21.62
2022-07-28T08:38:43.258Z,21.59
2022-07-28T08:39:45.577Z,21.63
2022-07-28T08:40:49.721Z,21.68
2022-07-28T08:42:08.192Z,21.75
2022-07-28T08:43:34.082Z,21.76
2022-07-28T08:44:53.986Z,21.81
2022-07-28T08:45:58.811Z,21.79
2022-07-28T08:47:02.486Z,21.75
2022-07-28T08:48:09.374Z,21.74
2022-07-28T08:49:15.419Z,21.78
2022-07-28T08:50:20.899Z,21.83
2022-07-28T08:51:26.521Z,21.73
2022-07-28T08:52:30.506Z,21.70
2022-07-28T08:53:35.079Z,21.74
2022-07-28T08:54:43.018Z,21.69
2022-07-28T08:55:47.059Z,21.68
2022-07-28T08:56:50.094Z,21.61
2022-07-28T08:57:54.556Z,21.71
2022-07-28T08:58:58.956Z,21.75
2022-07-28T09:00:01.653Z,21.69
2022-07-28T09:01:05.907Z,21.61
2022-07-28T09:02:11.055Z,21.72
2022-07-28T09:03:14.322Z,21.80
2022-07-28T09:04:18.235Z,21.83
2022-07-28T09:05:22.401Z,21.86
2022-07-28T09:06:26.871Z,21.93
2022-07-28T09:07:31.042Z,21.89
2022-07-28T09:08:33.946Z,21.99
2022-07-28T09:09:37.428Z,22.01
2022-07-28T09:10:39.967Z,22.04
2022-07-28T09:11:43.325Z,22.02
2022-07-28T09:12:46.064Z,22.02
2022-07-28T09:13:53.563Z,21.97
2022-07-28T09:14:52.417Z,21.95
2022-07-28T09:15:54.716Z,22.05
2022-07-28T09:16:59.700Z,22.14
2022-07-28T09:18:01.998Z,22.14
2022-07-28T09:19:04.023Z,21.96
2022-07-28T09:20:11.323Z,21.97
2022-07-28T09:21:13.754Z,21.97
2022-07-28T09:22:16.732Z,21.96
2022-07-28T09:23:42.961Z,22.04
2022-07-28T09:24:40.089Z,22.16
2022-07-28T09:25:42.249Z,22.28
2022-07-28T09:28:18.236Z,22.54
2022-07-28T09:29:25.375Z,22.28
2022-07-28T09:30:30.503Z,22.33
2022-07-28T09:31:32.812Z,22.38
2022-07-28T09:32:35.677Z,22.36
2022-07-28T09:33:43.248Z,22.40
2022-07-28T09:34:47.843Z,22.45
2022-07-28T09:35:52.562Z,22.52
2022-07-28T09:36:55.595Z,22.52
2022-07-28T09:38:01.174Z,22.39
2022-07-28T09:39:03.658Z,22.42
2022-07-28T09:40:13.232Z,22.47
2022-07-28T09:41:15.304Z,22.44
2022-07-28T09:42:17.798Z,22.51
2022-07-28T09:43:32.158Z,22.51
2022-07-28T09:44:34.386Z,22.54
2022-07-28T09:45:36.465Z,22.48
2022-07-28T09:46:39.344Z,22.45
2022-07-28T09:47:41.899Z,22.52
2022-07-28T09:48:53.424Z,22.61
2022-07-28T09:49:55.722Z,22.72
2022-07-28T09:51:12.733Z,22.81
2022-07-28T09:52:31.062Z,22.89
2022-07-28T09:53:33.236Z,22.87
2022-07-28T09:54:40.543Z,22.89
2022-07-28T09:55:44.018Z,22.89
2022-07-28T09:56:47.572Z,22.97
2022-07-28T09:57:49.732Z,23.03
2022-07-28T09:58:57.306Z,23.14
2022-07-28T10:00:00.194Z,23.25
2022-07-28T10:01:09.055Z,23.21
2022-07-28T10:02:11.802Z,23.25
2022-07-28T10:03:26.020Z,23.27
2022-07-28T10:04:30.603Z,23.36
2022-07-28T10:05:39.550Z,23.52
2022-07-28T10:06:42.633Z,23.61
2022-07-28T10:07:49.069Z,23.63
2022-07-28T10:08:52.372Z,23.76
2022-07-28T10:10:03.544Z,23.75
2022-07-28T10:11:06.527Z,23.84
2022-07-28T10:12:16.719Z,23.74
2022-07-28T10:13:19.026Z,23.69
2022-07-28T10:14:24.770Z,23.62
2022-07-28T10:15:31.108Z,23.51
2022-07-28T10:16:35.995Z,23.52
2022-07-28T10:17:38.916Z,23.49
2022-07-28T10:18:43.132Z,23.24
2022-07-28T10:19:46.348Z,23.20
2022-07-28T10:20:49.070Z,23.25
2022-07-28T10:21:54.203Z,23.17
2022-07-28T10:23:00.137Z,23.26
2022-07-28T10:24:05.710Z,23.39
2022-07-28T10:25:10.333Z,23.38
2022-07-28T10:26:15.197Z,23.26
2022-07-28T10:27:18.813Z,23.21
2022-07-28T10:28:22.191Z,23.24
2022-07-28T10:29:25.255Z,23.36
2022-07-28T10:30:32.421Z,23.42
2022-07-28T10:31:47.102Z,23.50
2022-07-28T10:32:50.720Z,23.41
2022-07-28T10:33:54.891Z,23.40
2022-07-28T10:34:59.971Z,23.47
2022-07-28T10:36:03.703Z,23.51
2022-07-28T10:37:09.472Z,23.58
2022-07-28T10:38:14.177Z,23.70
2022-07-28T10:39:20.352Z,23.74
2022-07-28T10:40:27.506Z,23.70
2022-07-28T10:41:33.449Z,23.93
2022-07-28T10:42:36.631Z,24.16
2022-07-28T10:43:42.721Z,24.38
2022-07-28T10:44:46.467Z,24.52
2022-07-28T10:46:06.697Z,24.61
2022-07-28T10:46:54.018Z,24.56
2022-07-28T10:47:57.344Z,24.09
2022-07-28T10:49:03.659Z,23.96
2022-07-28T10:50:05.924Z,23.95
2022-07-28T10:51:08.737Z,24.11
2022-07-28T10:52:30.469Z,24.32
2022-07-28T10:53:34.557Z,24.47
2022-07-28T10:55:00.158Z,24.60
2022-07-28T10:56:09.200Z,24.74
2022-07-28T10:57:13.516Z,24.88
2022-07-28T10:58:40.734Z,24.77
2022-07-28T10:59:48.723Z,24.84
2022-07-28T11:00:56.468Z,24.72
2022-07-28T11:01:59.768Z,24.80
2022-07-28T11:03:13.421Z,24.88
2022-07-28T11:04:07.544Z,24.97
2022-07-28T11:05:35.513Z,24.91
2022-07-28T11:06:38.827Z,24.77
2022-07-28T11:07:40.977Z,24.97
2022-07-28T11:08:43.350Z,25.21
2022-07-28T11:09:49.353Z,25.17
2022-07-28T11:11:00.730Z,25.20
2022-07-28T11:11:59.858Z,25.17
2022-07-28T11:13:04.233Z,24.96
2022-07-28T11:14:31.197Z,24.92
2022-07-28T11:15:37.077Z,24.74
2022-07-28T11:16:41.000Z,24.90
2022-07-28T11:17:48.590Z,24.81
2022-07-28T11:19:40.093Z,24.88
2022-07-28T11:20:26.043Z,24.86
2022-07-28T11:21:20.645Z,25.03
2022-07-28T11:22:25.020Z,25.20
2022-07-28T11:23:40.411Z,25.05
2022-07-28T11:25:00.778Z,25.15
2022-07-28T11:26:24.239Z,25.36
2022-07-28T11:27:45.410Z,25.30
2022-07-28T11:29:03.809Z,25.35
2022-07-28T11:30:09.823Z,25.32
2022-07-28T11:31:13.218Z,25.25
2022-07-28T11:32:15.559Z,25.15
2022-07-28T11:33:19.293Z,25.31
2022-07-28T11:34:23.750Z,25.13
2022-07-28T11:35:29.159Z,25.03
2022-07-28T11:37:04.231Z,25.13
2022-07-28T11:38:11.783Z,25.25
2022-07-28T11:39:28.179Z,25.42
2022-07-28T11:40:38.873Z,25.13
2022-07-28T11:41:42.159Z,25.24
2022-07-28T11:42:46.529Z,25.47
2022-07-28T11:43:49.925Z,25.68
2022-07-28T11:44:53.707Z,25.60
2022-07-28T11:46:09.508Z,25.55
2022-07-28T11:47:18.126Z,25.48
2022-07-28T11:48:23.297Z,25.55
2022-07-28T11:49:26.363Z,25.82
2022-07-28T11:50:29.939Z,25.84
2022-07-28T11:51:38.783Z,25.84
2022-07-28T11:52:38.839Z,26.12
2022-07-28T11:53:53.295Z,26.21
2022-07-28T11:54:57.900Z,26.20
2022-07-28T11:56:03.325Z,26.15
2022-07-28T11:57:07.026Z,26.26
2022-07-28T11:58:14.109Z,26.34
2022-07-28T11:59:18.004Z,26.38
2022-07-28T12:00:21.978Z,26.21
2022-07-28T12:01:25.282Z,26.01
2022-07-28T12:02:29.354Z,26.39
2022-07-28T12:03:38.551Z,26.53
2022-07-28T12:04:43.141Z,26.54
2022-07-28T12:07:05.296Z,26.33
2022-07-28T12:08:08.033Z,26.38
2022-07-28T12:09:10.819Z,26.55
2022-07-28T12:10:54.092Z,26.38
2022-07-28T12:11:42.682Z,26.11
2022-07-28T12:12:50.869Z,25.98
2022-07-28T12:14:09.602Z,25.87
2022-07-28T12:15:16.371Z,25.77
2022-07-28T12:16:24.217Z,25.89
2022-07-28T12:17:33.934Z,25.77
2022-07-28T12:18:38.489Z,25.86
2022-07-28T12:19:43.515Z,25.72
2022-07-28T12:20:48.758Z,26.09
2022-07-28T12:21:55.717Z,26.14
2022-07-28T12:23:07.350Z,26.05
2022-07-28T12:24:15.257Z,26.08
2022-07-28T12:25:19.936Z,26.44
2022-07-28T12:26:31.746Z,26.80
2022-07-28T12:27:33.997Z,27.02
2022-07-28T12:28:38.081Z,27.09
2022-07-28T12:29:40.350Z,27.26
2022-07-28T12:30:44.430Z,27.46
2022-07-28T12:31:57.080Z,27.67
2022-07-28T12:32:59.496Z,27.78
2022-07-28T12:34:03.273Z,27.79
2022-07-28T12:35:06.826Z,27.42
2022-07-28T12:36:09.863Z,26.92
2022-07-28T12:37:13.754Z,26.89
2022-07-28T12:38:17.498Z,26.61
2022-07-28T12:39:19.928Z,26.61
2022-07-28T12:40:27.457Z,26.85
2022-07-28T12:41:32.211Z,26.81
2022-07-28T12:42:34.336Z,26.71
2022-07-28T12:43:37.128Z,26.61
2022-07-28T12:45:53.406Z,27.06
2022-07-28T12:46:56.820Z,26.99
2022-07-28T12:48:06.353Z,27.22
2022-07-28T12:49:12.417Z,27.51
2022-07-28T12:50:19.364Z,27.64
2022-07-28T12:51:40.886Z,27.38
2022-07-28T12:52:46.011Z,26.59
2022-07-28T12:53:51.445Z,26.62
2022-07-28T12:54:56.601Z,26.76
2022-07-28T12:56:01.799Z,26.97
2022-07-28T12:57:04.009Z,26.71
2022-07-28T12:58:06.524Z,26.78
2022-07-28T12:59:10.313Z,27.03
2022-07-28T13:00:15.341Z,27.16
2022-07-28T13:01:18.331Z,27.25
2022-07-28T13:02:25.248Z,27.18
2022-07-28T13:03:28.769Z,27.20
2022-07-28T13:04:48.548Z,27.51
2022-07-28T13:05:52.868Z,27.67
2022-07-28T13:06:58.596Z,27.87
2022-07-28T13:08:05.787Z,27.96
2022-07-28T13:09:09.611Z,28.09
2022-07-28T13:10:18.379Z,28.14
2022-07-28T13:12:29.365Z,28.34
2022-07-28T13:13:47.582Z,28.43
2022-07-28T13:14:54.747Z,28.52
2022-07-28T13:16:17.295Z,28.68
2022-07-28T13:17:21.744Z,29.02
2022-07-28T13:18:40.551Z,29.10
2022-07-28T13:19:42.991Z,28.00
2022-07-28T13:20:51.294Z,27.65
2022-07-28T13:21:57.291Z,27.58
2022-07-28T13:22:59.484Z,27.37
2022-07-28T13:24:02.765Z,27.46
2022-07-28T13:25:06.729Z,27.52
2022-07-28T13:26:09.600Z,27.41
2022-07-28T13:27:11.972Z,27.72
2022-07-28T13:28:26.008Z,28.14
2022-07-28T13:29:29.570Z,28.14
2022-07-28T13:30:33.092Z,28.62
2022-07-28T13:31:37.188Z,29.06
2022-07-28T13:32:40.510Z,29.43
2022-07-28T13:33:44.549Z,29.33
2022-07-28T13:34:47.101Z,29.68
2022-07-28T13:35:49.395Z,29.80
2022-07-28T13:36:51.831Z,29.57
2022-07-28T13:37:54.810Z,29.39
2022-07-28T13:38:57.274Z,29.39
2022-07-28T13:39:59.647Z,29.67
2022-07-28T13:41:01.864Z,29.71
2022-07-28T13:42:05.622Z,29.76
2022-07-28T13:43:11.342Z,29.84
2022-07-28T13:44:12.718Z,29.30
2022-07-28T13:45:17.171Z,28.61
2022-07-28T13:46:20.631Z,28.39
2022-07-28T13:47:23.546Z,28.50
2022-07-28T13:48:26.257Z,29.00
2022-07-28T13:49:32.548Z,29.35
2022-07-28T13:50:37.192Z,29.52
2022-07-28T13:51:39.648Z,29.90
2022-07-28T13:52:41.650Z,29.77
2022-07-28T13:53:45.119Z,29.04
2022-07-28T13:54:50.617Z,29.43
2022-07-28T13:55:53.497Z,29.79
2022-07-28T13:57:12.162Z,29.81
2022-07-28T13:58:15.622Z,29.75
2022-07-28T13:59:20.842Z,29.48
2022-07-28T14:00:26.497Z,30.02
2022-07-28T14:01:29.738Z,30.03
2022-07-28T14:02:32.224Z,30.08
2022-07-28T14:03:50.869Z,30.29
2022-07-28T14:04:42.208Z,30.49
2022-07-28T14:05:46.184Z,30.62
2022-07-28T14:06:49.182Z,30.47
2022-07-28T14:07:51.159Z,30.79
2022-07-28T14:08:54.914Z,30.84
2022-07-28T14:09:58.629Z,31.07